createdAt,value
2018-12-01T00:00:35.316Z,54.93
2018-12-01T00:03:04.685Z,59.90
2018-12-01T00:05:34.034Z,59.90
2018-12-01T00:08:03.750Z,55.00
2018-12-01T00:10:33.063Z,62.93
2018-12-01T00:13:02.803Z,58.20
2018-12-01T00:15:32.598Z,65.03
2018-12-01T00:18:02.105Z,73.63
2018-12-01T00:20:33.116Z,64.03
2018-12-01T00:23:02.653Z,65.53
2018-12-01T00:25:31.829Z,77.00
2018-12-01T00:28:01.459Z,65.30
2018-12-01T00:30:30.738Z,65.37
2018-12-01T00:33:00.014Z,62.27
2018-12-01T00:35:29.789Z,68.03
2018-12-01T00:37:59.203Z,64.57
2018-12-01T00:40:28.555Z,66.63
2018-12-01T00:42:58.153Z,72.00
2018-12-01T00:45:27.358Z,70.50
2018-12-01T00:47:56.878Z,72.80
2018-12-01T00:50:26.344Z,70.20
2018-12-01T00:52:55.592Z,62.63
2018-12-01T00:55:24.710Z,66.07
2018-12-01T00:57:54.085Z,62.03
2018-12-01T01:00:26.813Z,66.67
2018-12-01T01:02:57.669Z,62.30
2018-12-01T01:05:28.770Z,69.53
2018-12-01T01:07:59.072Z,65.40
2018-12-01T01:10:29.312Z,57.17
2018-12-01T01:12:58.601Z,51.60
2018-12-01T01:15:28.168Z,53.67
2018-12-01T01:17:57.508Z,59.73
2018-12-01T01:20:26.865Z,56.40
2018-12-01T01:22:56.369Z,58.80
2018-12-01T01:25:25.444Z,57.20
2018-12-01T01:27:55.487Z,56.37
2018-12-01T01:30:25.232Z,58.27
2018-12-01T01:33:04.506Z,61.00
2018-12-01T01:35:34.402Z,57.50
2018-12-01T01:38:04.890Z,64.17
2018-12-01T01:40:34.246Z,59.47
2018-12-01T01:43:03.715Z,65.83
2018-12-01T01:45:33.114Z,71.47
2018-12-01T01:48:02.388Z,68.00
2018-12-01T01:50:31.806Z,63.07
2018-12-01T01:53:01.384Z,66.53
2018-12-01T01:55:30.786Z,70.97
2018-12-01T01:58:00.287Z,72.87
2018-12-01T02:00:30.133Z,71.47
2018-12-01T02:02:59.564Z,70.73
2018-12-01T02:05:28.896Z,68.97
2018-12-01T02:07:58.443Z,68.20
2018-12-01T02:10:28.009Z,69.07
2018-12-01T02:12:57.393Z,67.47
2018-12-01T02:15:26.810Z,65.87
2018-12-01T02:17:56.165Z,69.40
2018-12-01T02:20:25.449Z,65.83
2018-12-01T02:22:55.929Z,73.63
2018-12-01T02:25:25.473Z,70.27
2018-12-01T02:27:54.436Z,63.03
2018-12-01T02:30:23.910Z,67.97
2018-12-01T02:32:53.167Z,67.83
2018-12-01T02:35:26.501Z,69.63
2018-12-01T02:37:55.884Z,67.93
2018-12-01T02:40:25.262Z,64.50
2018-12-01T02:42:54.666Z,63.40
2018-12-01T02:45:34.961Z,62.43
2018-12-01T02:48:04.354Z,69.37
2018-12-01T02:50:33.628Z,66.90
2018-12-01T02:53:02.796Z,69.57
2018-12-01T02:55:32.168Z,67.53
2018-12-01T02:58:01.374Z,71.63
2018-12-01T03:00:31.032Z,64.10
2018-12-01T03:03:00.001Z,64.90
2018-12-01T03:05:29.514Z,60.67
2018-12-01T03:07:59.184Z,67.43
2018-12-01T03:10:28.541Z,75.43
2018-12-01T03:12:58.061Z,59.37
2018-12-01T03:15:27.510Z,55.73
2018-12-01T03:17:56.838Z,59.50
2018-12-01T03:20:25.985Z,58.27
2018-12-01T03:22:55.208Z,53.07
2018-12-01T03:25:24.691Z,48.13
2018-12-01T03:27:55.220Z,62.43
2018-12-01T03:30:25.660Z,59.27
2018-12-01T03:32:55.486Z,54.20
2018-12-01T03:35:25.722Z,61.33
2018-12-01T03:37:54.657Z,63.57
2018-12-01T03:40:24.121Z,59.97
2018-12-01T03:42:53.933Z,56.90
2018-12-01T03:45:23.703Z,55.10
2018-12-01T03:47:53.087Z,55.70
2018-12-01T03:50:24.988Z,66.00
2018-12-01T03:52:56.559Z,63.30
2018-12-01T03:55:29.935Z,59.63
2018-12-01T03:57:59.321Z,56.57
2018-12-01T04:00:29.513Z,52.73
2018-12-01T04:02:59.870Z,60.03
2018-12-01T04:05:29.449Z,57.13
2018-12-01T04:07:59.074Z,58.63
2018-12-01T04:10:28.504Z,55.57
2018-12-01T04:12:57.569Z,52.77
2018-12-01T04:15:27.036Z,48.70
2018-12-01T04:17:56.327Z,52.53
2018-12-01T04:20:25.302Z,54.53
2018-12-01T04:22:54.470Z,54.00
2018-12-01T04:25:24.224Z,61.03
2018-12-01T04:27:53.372Z,62.23
2018-12-01T04:30:25.232Z,53.73
2018-12-01T04:32:54.376Z,54.80
2018-12-01T04:35:24.485Z,56.87
2018-12-01T04:37:54.873Z,54.03
2018-12-01T04:40:24.856Z,55.10
2018-12-01T04:42:54.240Z,54.63
2018-12-01T04:45:23.617Z,56.27
2018-12-01T04:47:52.992Z,60.10
2018-12-01T04:50:22.159Z,58.87
2018-12-01T04:52:51.647Z,67.07
2018-12-01T04:55:21.400Z,52.73
2018-12-01T04:57:50.432Z,54.90
2018-12-01T05:00:20.518Z,49.33
2018-12-01T05:02:49.750Z,52.03
2018-12-01T05:05:20.913Z,55.47
2018-12-01T05:07:50.322Z,55.00
2018-12-01T05:10:20.846Z,52.70
2018-12-01T05:12:50.292Z,53.33
2018-12-01T05:15:20.063Z,49.10
2018-12-01T05:17:49.240Z,51.50
2018-12-01T05:20:23.941Z,50.53
2018-12-01T05:22:54.184Z,51.27
2018-12-01T05:25:23.172Z,46.47
2018-12-01T05:27:52.799Z,50.37
2018-12-01T05:30:22.203Z,47.53
2018-12-01T05:32:51.230Z,48.23
2018-12-01T05:35:22.703Z,52.87
2018-12-01T05:37:52.003Z,51.03
2018-12-01T05:40:21.260Z,54.47
2018-12-01T05:42:50.402Z,50.97
2018-12-01T05:45:20.801Z,50.50
2018-12-01T05:47:50.290Z,55.80
2018-12-01T05:50:26.305Z,46.90
2018-12-01T05:52:56.366Z,54.60
2018-12-01T05:55:25.455Z,54.40
2018-12-01T05:57:54.720Z,51.03
2018-12-01T06:00:23.740Z,52.53
2018-12-01T06:02:52.660Z,58.57
2018-12-01T06:05:22.204Z,54.10
2018-12-01T06:07:51.504Z,60.57
2018-12-01T06:10:21.883Z,51.63
2018-12-01T06:12:52.024Z,51.03
2018-12-01T06:15:21.945Z,47.43
2018-12-01T06:17:51.289Z,51.47
2018-12-01T06:20:21.976Z,47.37
2018-12-01T06:22:50.970Z,42.80
2018-12-01T06:25:21.289Z,48.90
2018-12-01T06:27:51.051Z,45.63
2018-12-01T06:30:21.799Z,50.17
2018-12-01T06:32:52.453Z,53.00
2018-12-01T06:35:21.956Z,51.77
2018-12-01T06:37:51.389Z,53.90
2018-12-01T06:40:21.619Z,42.10
2018-12-01T06:42:51.179Z,49.77
2018-12-01T06:45:20.793Z,54.90
2018-12-01T06:47:50.560Z,46.80
2018-12-01T06:50:24.068Z,40.73
2018-12-01T06:52:54.257Z,41.53
2018-12-01T06:55:24.300Z,44.27
2018-12-01T06:57:53.388Z,38.17
2018-12-01T07:00:24.777Z,43.87
2018-12-01T07:02:56.308Z,40.50
2018-12-01T07:05:25.758Z,40.43
2018-12-01T07:07:55.157Z,42.63
2018-12-01T07:10:24.752Z,38.93
2018-12-01T07:12:57.647Z,39.93
2018-12-01T07:15:29.507Z,38.07
2018-12-01T07:17:59.174Z,38.83
2018-12-01T07:20:28.541Z,43.83
2018-12-01T07:22:58.036Z,31.97
2018-12-01T07:25:27.934Z,40.13
2018-12-01T07:27:57.235Z,36.83
2018-12-01T07:30:26.855Z,36.83
2018-12-01T07:32:56.521Z,37.40
2018-12-01T07:35:25.671Z,37.13
2018-12-01T07:37:54.931Z,37.80
2018-12-01T07:40:24.236Z,44.77
2018-12-01T07:42:53.672Z,40.43
2018-12-01T07:45:23.310Z,40.33
2018-12-01T07:47:52.844Z,36.80
2018-12-01T07:50:22.088Z,42.50
2018-12-01T07:52:53.139Z,36.80
2018-12-01T07:55:22.513Z,39.47
2018-12-01T07:57:51.820Z,34.53
2018-12-01T08:00:21.373Z,44.20
2018-12-01T08:02:51.264Z,39.03
2018-12-01T08:05:20.290Z,55.60
2018-12-01T08:07:49.806Z,41.47
2018-12-01T08:10:18.996Z,51.70
2018-12-01T08:12:48.330Z,44.53
2018-12-01T08:15:18.514Z,49.10
2018-12-01T08:17:48.333Z,45.20
2018-12-01T08:20:18.195Z,44.63
2018-12-01T08:22:48.901Z,45.77
2018-12-01T08:25:19.135Z,42.90
2018-12-01T08:27:50.840Z,51.27
2018-12-01T08:30:28.422Z,40.60
2018-12-01T08:32:58.318Z,37.97
2018-12-01T08:35:28.889Z,37.60
2018-12-01T08:38:00.590Z,37.67
2018-12-01T08:40:31.101Z,36.03
2018-12-01T08:43:00.583Z,33.07
2018-12-01T08:45:30.146Z,30.17
2018-12-01T08:47:59.796Z,31.00
2018-12-01T08:50:29.388Z,25.53
2018-12-01T08:53:00.308Z,35.53
2018-12-01T08:55:30.032Z,33.07
2018-12-01T08:57:59.354Z,41.53
2018-12-01T09:00:34.123Z,36.00
2018-12-01T09:03:11.014Z,37.07
2018-12-01T09:05:40.677Z,34.23
2018-12-01T09:08:09.884Z,36.00
2018-12-01T09:10:39.360Z,33.67
2018-12-01T09:13:09.178Z,37.20
2018-12-01T09:15:38.590Z,33.50
2018-12-01T09:18:07.742Z,42.40
2018-12-01T09:20:37.321Z,31.77
2018-12-01T09:23:06.961Z,37.33
2018-12-01T09:25:36.313Z,34.93
2018-12-01T09:28:06.325Z,26.70
2018-12-01T09:30:36.737Z,25.23
2018-12-01T09:33:06.616Z,26.30
2018-12-01T09:35:36.222Z,19.50
2018-12-01T09:38:05.539Z,18.10
2018-12-01T09:40:34.935Z,14.97
2018-12-01T09:43:04.384Z,14.60
2018-12-01T09:45:33.795Z,16.27
2018-12-01T09:48:03.502Z,16.77
2018-12-01T09:50:32.985Z,17.20
2018-12-01T09:53:02.157Z,16.53
2018-12-01T09:55:31.962Z,14.87
2018-12-01T09:58:01.414Z,18.10
2018-12-01T10:00:33.506Z,16.53
2018-12-01T10:03:04.223Z,14.67
2018-12-01T10:05:33.908Z,15.93
2018-12-01T10:08:02.922Z,19.87
2018-12-01T10:10:32.355Z,19.00
2018-12-01T10:13:01.506Z,20.33
2018-12-01T10:15:34.379Z,26.60
2018-12-01T10:18:03.578Z,20.17
2018-12-01T10:20:34.895Z,23.60
2018-12-01T10:23:08.935Z,20.03
2018-12-01T10:25:38.372Z,31.23
2018-12-01T10:28:10.381Z,24.50
2018-12-01T10:30:39.612Z,35.43
2018-12-01T10:33:09.002Z,37.97
2018-12-01T10:35:39.528Z,42.10
2018-12-01T10:38:15.007Z,32.93
2018-12-01T10:40:45.503Z,26.13
2018-12-01T10:43:14.893Z,32.07
2018-12-01T10:45:44.520Z,35.17
2018-12-01T10:48:13.941Z,37.13
2018-12-01T10:50:43.039Z,37.30
2018-12-01T10:53:12.216Z,32.87
2018-12-01T10:55:41.925Z,36.57
2018-12-01T10:58:18.569Z,30.27
2018-12-01T11:00:54.466Z,31.97
2018-12-01T11:03:30.887Z,36.13
2018-12-01T11:06:02.415Z,31.60
2018-12-01T11:08:32.509Z,26.53
2018-12-01T11:11:02.113Z,32.13
2018-12-01T11:13:31.948Z,30.77
2018-12-01T11:16:01.719Z,29.23
2018-12-01T11:18:31.449Z,29.77
2018-12-01T11:21:01.560Z,31.83
2018-12-01T11:23:32.106Z,32.03
2018-12-01T11:26:01.763Z,23.67
2018-12-01T11:28:31.558Z,29.33
2018-12-01T11:31:01.620Z,27.73
2018-12-01T11:33:31.152Z,36.07
2018-12-01T11:36:00.683Z,36.70
2018-12-01T11:38:30.436Z,35.97
2018-12-01T11:41:00.603Z,24.33
2018-12-01T11:43:29.707Z,31.63
2018-12-01T11:45:59.000Z,35.63
2018-12-01T11:48:28.606Z,36.97
2018-12-01T11:50:57.992Z,33.47
2018-12-01T11:53:27.623Z,27.20
2018-12-01T11:55:57.443Z,26.87
2018-12-01T11:58:26.422Z,32.37
2018-12-01T12:00:55.764Z,29.80
2018-12-01T12:03:24.923Z,30.87
2018-12-01T12:05:54.106Z,20.83
2018-12-01T12:08:23.981Z,30.57
2018-12-01T12:10:53.478Z,23.63
2018-12-01T12:13:23.525Z,32.70
2018-12-01T12:15:53.274Z,33.73
2018-12-01T12:18:22.868Z,30.10
2018-12-01T12:20:52.136Z,28.57
2018-12-01T12:23:21.315Z,29.67
2018-12-01T12:25:50.599Z,31.57
2018-12-01T12:28:19.900Z,26.70
2018-12-01T12:30:49.359Z,23.73
2018-12-01T12:33:18.475Z,33.20
2018-12-01T12:35:47.790Z,32.43
2018-12-01T12:38:17.324Z,26.60
2018-12-01T12:40:46.676Z,22.33
2018-12-01T12:43:15.784Z,30.27
2018-12-01T12:45:45.217Z,27.37
2018-12-01T12:48:14.306Z,31.70
2018-12-01T12:50:43.365Z,38.40
2018-12-01T12:53:12.822Z,26.37
2018-12-01T12:55:41.901Z,26.07
2018-12-01T12:58:11.362Z,22.13
2018-12-01T13:00:40.499Z,23.53
2018-12-01T13:03:10.967Z,18.63
2018-12-01T13:05:43.545Z,21.63
2018-12-01T13:08:14.004Z,28.30
2018-12-01T13:10:43.688Z,27.97
2018-12-01T13:13:12.786Z,22.17
2018-12-01T13:15:41.837Z,25.57
2018-12-01T13:18:12.257Z,23.23
2018-12-01T13:20:42.386Z,16.70
2018-12-01T13:23:11.575Z,26.60
2018-12-01T13:25:41.547Z,15.67
2018-12-01T13:28:13.975Z,19.07
2018-12-01T13:30:47.515Z,18.13
2018-12-01T13:33:16.834Z,23.57
2018-12-01T13:35:45.963Z,21.27
2018-12-01T13:38:15.620Z,21.47
2018-12-01T13:40:44.919Z,16.87
2018-12-01T13:43:14.232Z,21.10
2018-12-01T13:45:43.461Z,15.43
2018-12-01T13:48:12.828Z,12.70
2018-12-01T13:50:41.972Z,20.20
2018-12-01T13:53:12.221Z,17.90
2018-12-01T13:55:41.545Z,19.83
2018-12-01T13:58:10.620Z,16.60
2018-12-01T14:00:40.361Z,18.37
2018-12-01T14:03:10.573Z,18.07
2018-12-01T14:05:40.818Z,13.87
2018-12-01T14:08:10.139Z,18.47
2018-12-01T14:10:41.474Z,16.33
2018-12-01T14:13:12.250Z,15.83
2018-12-01T14:15:41.436Z,14.50
2018-12-01T14:18:10.768Z,19.10
2018-12-01T14:20:39.877Z,23.00
2018-12-01T14:23:09.049Z,16.33
2018-12-01T14:25:39.386Z,21.63
2018-12-01T14:28:12.649Z,17.43
2018-12-01T14:30:42.064Z,20.33
2018-12-01T14:33:12.573Z,16.20
2018-12-01T14:35:42.002Z,21.03
2018-12-01T14:38:13.634Z,20.93
2018-12-01T14:40:43.907Z,12.03
2018-12-01T14:43:13.184Z,16.60
2018-12-01T14:45:43.307Z,14.10
2018-12-01T14:48:12.310Z,17.67
2018-12-01T14:50:41.500Z,14.27
2018-12-01T14:53:12.225Z,17.40
2018-12-01T14:55:41.338Z,15.07
2018-12-01T14:58:10.428Z,15.00
2018-12-01T15:00:40.879Z,13.33
2018-12-01T15:03:10.248Z,16.03
2018-12-01T15:05:41.119Z,11.73
2018-12-01T15:08:10.422Z,15.10
2018-12-01T15:10:39.591Z,14.57
2018-12-01T15:13:09.019Z,17.27
2018-12-01T15:15:38.047Z,21.97
2018-12-01T15:18:07.227Z,15.37
2018-12-01T15:20:36.530Z,22.17
2018-12-01T15:23:07.252Z,19.13
2018-12-01T15:25:36.645Z,15.70
2018-12-01T15:28:06.427Z,14.03
2018-12-01T15:30:35.919Z,17.47
2018-12-01T15:33:12.141Z,12.20
2018-12-01T15:35:42.298Z,17.70
2018-12-01T15:38:11.662Z,17.47
2018-12-01T15:40:44.878Z,15.87
2018-12-01T15:43:14.140Z,11.30
2018-12-01T15:45:43.338Z,17.62
2018-12-01T15:48:12.808Z,19.57
2018-12-01T15:50:42.177Z,18.73
2018-12-01T15:53:13.266Z,17.90
2018-12-01T15:55:43.215Z,19.40
2018-12-01T15:58:11.583Z,16.40
2018-12-01T16:00:41.705Z,17.93
2018-12-01T16:03:11.476Z,14.63
2018-12-01T16:05:40.881Z,14.73
2018-12-01T16:08:11.267Z,19.77
2018-12-01T16:10:40.537Z,17.50
2018-12-01T16:13:15.359Z,18.90
2018-12-01T16:15:47.529Z,21.33
2018-12-01T16:18:17.562Z,20.23
2018-12-01T16:20:46.973Z,22.97
2018-12-01T16:23:17.412Z,16.53
2018-12-01T16:25:47.006Z,19.47
2018-12-01T16:28:16.695Z,14.50
2018-12-01T16:31:00.323Z,19.83
2018-12-01T16:33:29.802Z,19.27
2018-12-01T16:35:59.084Z,17.20
2018-12-01T16:38:31.659Z,20.20
2018-12-01T16:41:04.694Z,14.67
2018-12-01T16:43:35.773Z,25.13
2018-12-01T16:46:05.202Z,19.00
2018-12-01T16:48:34.686Z,17.07
2018-12-01T16:51:05.210Z,13.97
2018-12-01T16:53:34.641Z,16.00
2018-12-01T16:56:06.300Z,19.03
2018-12-01T16:58:36.047Z,19.00
2018-12-01T17:01:06.346Z,16.03
2018-12-01T17:03:35.833Z,15.63
2018-12-01T17:06:14.606Z,18.43
2018-12-01T17:08:44.592Z,14.13
2018-12-01T17:11:15.471Z,15.03
2018-12-01T17:13:45.563Z,14.80
2018-12-01T17:16:15.808Z,16.30
2018-12-01T17:18:45.127Z,23.63
2018-12-01T17:21:14.754Z,16.47
2018-12-01T17:23:44.151Z,13.63
2018-12-01T17:26:14.627Z,12.90
2018-12-01T17:28:44.193Z,16.57
2018-12-01T17:31:13.502Z,17.93
2018-12-01T17:33:42.774Z,16.47
2018-12-01T17:36:12.197Z,13.70
2018-12-01T17:38:41.632Z,13.33
2018-12-01T17:41:16.669Z,17.40
2018-12-01T17:44:17.545Z,13.90
2018-12-01T17:46:46.855Z,12.17
2018-12-01T17:49:15.959Z,20.73
2018-12-01T17:51:45.023Z,18.33
2018-12-01T17:54:19.175Z,12.30
2018-12-01T17:56:48.487Z,16.13
2018-12-01T17:59:17.451Z,16.73
2018-12-01T18:01:46.815Z,17.40
2018-12-01T18:04:15.920Z,14.53
2018-12-01T18:06:45.393Z,16.10
2018-12-01T18:09:14.678Z,25.33
2018-12-01T18:11:43.702Z,23.40
2018-12-01T18:14:13.358Z,29.17
2018-12-01T18:16:45.184Z,22.73
2018-12-01T18:19:14.350Z,15.77
2018-12-01T18:21:43.918Z,16.80
2018-12-01T18:24:13.246Z,14.60
2018-12-01T18:26:42.423Z,14.83
2018-12-01T18:29:11.701Z,17.00
2018-12-01T18:31:41.100Z,13.80
2018-12-01T18:34:12.440Z,17.03
2018-12-01T18:36:41.802Z,17.37
2018-12-01T18:39:13.630Z,14.77
2018-12-01T18:41:43.056Z,16.53
2018-12-01T18:44:12.355Z,20.00
2018-12-01T18:46:41.876Z,13.93
2018-12-01T18:49:11.014Z,17.10
2018-12-01T18:51:40.413Z,13.73
2018-12-01T18:54:10.065Z,14.53
2018-12-01T18:56:39.751Z,17.27
2018-12-01T18:59:09.131Z,13.27
2018-12-01T19:01:38.580Z,15.63
2018-12-01T19:04:08.074Z,10.30
2018-12-01T19:06:37.246Z,16.80
2018-12-01T19:09:08.787Z,14.60
2018-12-01T19:11:38.597Z,14.83
2018-12-01T19:14:07.932Z,20.03
2018-12-01T19:16:37.251Z,13.23
2018-12-01T19:19:07.314Z,16.37
2018-12-01T19:21:36.924Z,11.80
2018-12-01T19:24:06.263Z,14.10
2018-12-01T19:26:35.698Z,13.13
2018-12-01T19:29:08.660Z,9.63
2018-12-01T19:31:38.075Z,19.07
2018-12-01T19:34:07.699Z,10.03
2018-12-01T19:36:37.379Z,15.40
2018-12-01T19:39:08.458Z,11.53
2018-12-01T19:41:37.918Z,15.33
2018-12-01T19:44:07.637Z,17.07
2018-12-01T19:46:37.114Z,10.23
2018-12-01T19:49:06.797Z,14.13
2018-12-01T19:51:35.954Z,15.40
2018-12-01T19:54:05.624Z,16.50
2018-12-01T19:56:34.615Z,12.97
2018-12-01T19:59:04.011Z,17.77
2018-12-01T20:01:33.479Z,15.03
2018-12-01T20:04:02.893Z,16.00
2018-12-01T20:06:32.056Z,12.00
2018-12-01T20:09:01.181Z,19.83
2018-12-01T20:11:30.480Z,12.87
2018-12-01T20:13:59.931Z,12.37
2018-12-01T20:16:33.169Z,20.97
2018-12-01T20:19:02.801Z,11.90
2018-12-01T20:21:32.046Z,11.37
2018-12-01T20:24:01.141Z,16.13
2018-12-01T20:26:30.720Z,15.43
2018-12-01T20:28:59.835Z,16.20
2018-12-01T20:31:28.987Z,13.60
2018-12-01T20:34:00.479Z,15.27
2018-12-01T20:36:34.908Z,14.63
2018-12-01T20:39:11.146Z,11.40
2018-12-01T20:41:40.527Z,15.00
2018-12-01T20:44:09.692Z,14.10
2018-12-01T20:46:38.978Z,15.30
2018-12-01T20:49:08.526Z,13.43
2018-12-01T20:51:37.783Z,15.70
2018-12-01T20:54:10.812Z,14.70
2018-12-01T20:56:40.941Z,17.07
2018-12-01T20:59:10.437Z,14.90
2018-12-01T21:01:39.801Z,12.77
2018-12-01T21:04:09.142Z,16.17
2018-12-01T21:06:38.551Z,14.20
2018-12-01T21:09:10.129Z,17.23
2018-12-01T21:11:39.557Z,14.70
2018-12-01T21:14:08.760Z,12.87
2018-12-01T21:16:38.240Z,16.90
2018-12-01T21:19:07.874Z,11.23
2018-12-01T21:21:37.352Z,13.87
2018-12-01T21:25:13.231Z,13.90
2018-12-01T21:27:42.719Z,14.63
2018-12-01T21:30:18.495Z,14.53
2018-12-01T21:32:49.250Z,12.27
2018-12-01T21:35:18.363Z,11.93
2018-12-01T21:37:47.990Z,11.40
2018-12-01T21:40:21.256Z,13.43
2018-12-01T21:42:50.475Z,11.87
2018-12-01T21:45:20.160Z,11.87
2018-12-01T21:47:49.452Z,13.80
2018-12-01T21:50:20.161Z,12.33
2018-12-01T21:52:51.195Z,14.50
2018-12-01T21:55:20.518Z,13.47
2018-12-01T21:57:50.783Z,12.13
2018-12-01T22:00:29.718Z,11.57
2018-12-01T22:03:04.890Z,21.03
2018-12-01T22:05:37.753Z,10.73
2018-12-01T22:08:08.549Z,11.93
2018-12-01T22:10:37.842Z,15.03
2018-12-01T22:13:07.373Z,12.47
2018-12-01T22:15:37.165Z,13.13
2018-12-01T22:18:06.781Z,11.27
2018-12-01T22:20:36.249Z,12.17
2018-12-01T22:23:07.197Z,11.50
2018-12-01T22:25:36.291Z,8.87
2018-12-01T22:28:05.515Z,8.77
2018-12-01T22:30:34.861Z,14.17
2018-12-01T22:33:04.932Z,8.30
2018-12-01T22:35:34.202Z,13.30
2018-12-01T22:38:03.710Z,10.57
2018-12-01T22:40:34.243Z,13.57
2018-12-01T22:43:07.933Z,11.77
2018-12-01T22:45:37.282Z,17.10
2018-12-01T22:48:08.643Z,14.47
2018-12-01T22:50:38.170Z,10.60
2018-12-01T22:53:07.953Z,15.07
2018-12-01T22:55:37.209Z,10.20
2018-12-01T22:58:09.285Z,7.83
2018-12-01T23:00:57.410Z,11.40
2018-12-01T23:03:27.990Z,11.83
2018-12-01T23:05:57.622Z,14.03
2018-12-01T23:08:27.964Z,13.67
2018-12-01T23:10:57.479Z,16.17
2018-12-01T23:13:26.959Z,14.40
2018-12-01T23:15:56.419Z,13.77
2018-12-01T23:18:26.988Z,13.57
2018-12-01T23:20:56.418Z,12.63
2018-12-01T23:23:25.916Z,11.60
2018-12-01T23:25:56.883Z,12.57
2018-12-01T23:28:26.451Z,14.60
2018-12-01T23:30:56.573Z,12.33
2018-12-01T23:33:27.627Z,8.73
2018-12-01T23:35:57.356Z,13.23
2018-12-01T23:38:26.972Z,12.10
2018-12-01T23:40:56.785Z,13.27
2018-12-01T23:43:26.352Z,11.83
2018-12-01T23:45:55.802Z,12.63
2018-12-01T23:48:25.206Z,13.67
2018-12-01T23:50:55.792Z,11.93
2018-12-01T23:53:26.262Z,9.27
2018-12-01T23:55:55.677Z,13.20
2018-12-01T23:58:25.288Z,9.97
